createdAt,value
2023-01-09T00:00:09.269Z,0.00
2023-01-09T00:01:09.235Z,0.00
2023-01-09T00:02:09.254Z,0.00
2023-01-09T00:03:09.270Z,0.00
2023-01-09T00:04:09.223Z,0.00
2023-01-09T00:05:09.175Z,0.00
2023-01-09T00:06:12.157Z,0.00
2023-01-09T00:07:12.159Z,0.00
2023-01-09T00:08:09.130Z,0.00
2023-01-09T00:09:09.148Z,0.00
2023-01-09T00:10:09.105Z,0.00
2023-01-09T00:11:09.096Z,0.00
2023-01-09T00:12:09.085Z,0.00
2023-01-09T00:13:09.068Z,0.00
2023-01-09T00:14:10.966Z,0.00
2023-01-09T00:15:09.079Z,0.00
2023-01-09T00:16:09.038Z,0.00
2023-01-09T00:17:09.009Z,0.00
2023-01-09T00:18:08.991Z,0.00
2023-01-09T00:19:08.981Z,0.00
2023-01-09T00:20:08.961Z,0.00
2023-01-09T00:21:08.973Z,0.00
2023-01-09T00:22:08.968Z,0.00
2023-01-09T00:23:08.920Z,0.00
2023-01-09T00:24:08.932Z,0.00
2023-01-09T00:25:08.895Z,0.00
2023-01-09T00:26:11.880Z,0.00
2023-01-09T00:27:11.982Z,0.00
2023-01-09T00:28:08.850Z,0.00
2023-01-09T00:29:08.839Z,0.00
2023-01-09T00:30:08.831Z,0.00
2023-01-09T00:31:08.872Z,0.00
2023-01-09T00:32:08.802Z,0.00
2023-01-09T00:33:08.801Z,0.00
2023-01-09T00:34:08.774Z,0.00
2023-01-09T00:35:08.756Z,0.00
2023-01-09T00:36:08.743Z,0.00
2023-01-09T00:37:08.752Z,0.00
2023-01-09T00:38:08.775Z,0.00
2023-01-09T00:39:08.698Z,0.00
2023-01-09T00:40:08.681Z,0.00
2023-01-09T00:41:08.672Z,0.00
2023-01-09T00:42:08.661Z,0.00
2023-01-09T00:43:08.634Z,0.00
2023-01-09T00:44:08.662Z,0.00
2023-01-09T00:45:08.615Z,0.00
2023-01-09T00:46:11.636Z,0.00
2023-01-09T00:47:19.096Z,0.00
2023-01-09T00:48:08.567Z,0.00
2023-01-09T00:49:08.718Z,0.00
2023-01-09T00:50:08.537Z,0.00
2023-01-09T00:51:08.523Z,0.00
2023-01-09T00:52:08.510Z,0.00
2023-01-09T00:53:08.507Z,0.00
2023-01-09T00:54:08.481Z,0.00
2023-01-09T00:55:08.498Z,0.00
2023-01-09T00:56:08.458Z,0.00
2023-01-09T00:57:08.458Z,0.00
2023-01-09T00:58:08.433Z,0.00
2023-01-09T00:59:08.438Z,0.00
2023-01-09T01:00:08.439Z,0.00
2023-01-09T01:01:08.472Z,0.00
2023-01-09T01:02:08.612Z,0.00
2023-01-09T01:03:08.363Z,0.00
2023-01-09T01:04:08.351Z,0.00
2023-01-09T01:05:08.333Z,0.00
2023-01-09T01:06:11.342Z,0.00
2023-01-09T01:07:11.337Z,0.00
2023-01-09T01:08:08.294Z,0.00
2023-01-09T01:09:08.270Z,0.00
2023-01-09T01:10:08.261Z,0.00
2023-01-09T01:11:08.244Z,0.00
2023-01-09T01:12:08.270Z,0.00
2023-01-09T01:13:08.213Z,0.00
2023-01-09T01:14:08.201Z,0.00
2023-01-09T01:15:08.183Z,0.00
2023-01-09T01:16:08.192Z,0.00
2023-01-09T01:17:08.189Z,0.00
2023-01-09T01:18:08.184Z,0.00
2023-01-09T01:19:08.139Z,0.00
2023-01-09T01:20:08.137Z,0.00
2023-01-09T01:21:08.106Z,0.00
2023-01-09T01:22:08.122Z,0.00
2023-01-09T01:23:08.112Z,0.00
2023-01-09T01:24:08.066Z,0.00
2023-01-09T01:25:08.054Z,0.00
2023-01-09T01:26:11.043Z,0.00
2023-01-09T01:27:11.091Z,0.00
2023-01-09T01:28:08.026Z,0.00
2023-01-09T01:29:08.026Z,0.00
2023-01-09T01:30:07.993Z,0.00
2023-01-09T01:31:08.085Z,0.00
2023-01-09T01:32:07.981Z,0.00
2023-01-09T01:33:07.979Z,0.00
2023-01-09T01:34:07.936Z,0.00
2023-01-09T01:35:07.914Z,0.00
2023-01-09T01:36:07.919Z,0.00
2023-01-09T01:37:07.920Z,0.00
2023-01-09T01:38:07.896Z,0.00
2023-01-09T01:39:07.864Z,0.00
2023-01-09T01:40:07.856Z,0.00
2023-01-09T01:41:07.827Z,0.00
2023-01-09T01:42:07.850Z,0.00
2023-01-09T01:43:07.797Z,0.00
2023-01-09T01:44:07.811Z,0.00
2023-01-09T01:45:07.805Z,0.00
2023-01-09T01:46:10.858Z,0.00
2023-01-09T01:47:10.764Z,0.00
2023-01-09T01:48:07.779Z,0.00
2023-01-09T01:49:07.742Z,0.00
2023-01-09T01:50:07.763Z,0.00
2023-01-09T01:51:07.691Z,0.00
2023-01-09T01:52:07.682Z,0.00
2023-01-09T01:53:07.670Z,0.00
2023-01-09T01:54:07.656Z,0.00
2023-01-09T01:55:07.632Z,0.00
2023-01-09T01:56:07.683Z,0.00
2023-01-09T01:57:07.626Z,0.00
2023-01-09T01:58:07.622Z,0.00
2023-01-09T01:59:07.584Z,0.00
2023-01-09T02:00:07.592Z,0.00
2023-01-09T02:01:07.618Z,0.00
2023-01-09T02:02:07.750Z,0.00
2023-01-09T02:03:07.553Z,0.00
2023-01-09T02:04:07.513Z,0.00
2023-01-09T02:05:07.535Z,0.00
2023-01-09T02:06:10.489Z,0.00
2023-01-09T02:07:10.522Z,0.00
2023-01-09T02:08:07.458Z,0.00
2023-01-09T02:09:07.446Z,0.00
2023-01-09T02:10:07.447Z,0.00
2023-01-09T02:11:07.424Z,0.00
2023-01-09T02:12:07.433Z,0.00
2023-01-09T02:13:07.394Z,0.00
2023-01-09T02:14:07.411Z,0.00
2023-01-09T02:15:07.398Z,0.00
2023-01-09T02:16:07.383Z,0.00
2023-01-09T02:17:07.336Z,0.00
2023-01-09T02:18:07.317Z,0.00
2023-01-09T02:19:07.375Z,0.00
2023-01-09T02:20:07.298Z,0.00
2023-01-09T02:21:07.284Z,0.00
2023-01-09T02:22:07.276Z,0.00
2023-01-09T02:23:07.263Z,0.00
2023-01-09T02:24:07.237Z,0.00
2023-01-09T02:25:07.313Z,0.00
2023-01-09T02:26:10.215Z,0.00
2023-01-09T02:27:10.228Z,0.00
2023-01-09T02:28:07.189Z,0.00
2023-01-09T02:29:07.187Z,0.00
2023-01-09T02:30:07.217Z,0.00
2023-01-09T02:31:07.157Z,0.00
2023-01-09T02:32:07.141Z,0.00
2023-01-09T02:33:07.119Z,0.00
2023-01-09T02:34:07.124Z,0.00
2023-01-09T02:35:07.100Z,0.00
2023-01-09T02:36:07.110Z,0.00
2023-01-09T02:37:07.096Z,0.00
2023-01-09T02:38:07.065Z,0.00
2023-01-09T02:39:07.046Z,0.00
2023-01-09T02:40:07.035Z,0.00
2023-01-09T02:41:07.066Z,0.00
2023-01-09T02:42:07.000Z,0.00
2023-01-09T02:43:07.011Z,0.00
2023-01-09T02:44:07.035Z,0.00
2023-01-09T02:45:06.967Z,0.00
2023-01-09T02:46:09.971Z,0.00
2023-01-09T02:47:09.951Z,0.00
2023-01-09T02:48:06.957Z,0.00
2023-01-09T02:49:06.920Z,0.00
2023-01-09T02:50:06.932Z,0.00
2023-01-09T02:51:06.951Z,0.00
2023-01-09T02:52:06.878Z,0.00
2023-01-09T02:53:06.863Z,0.00
2023-01-09T02:54:06.857Z,0.00
2023-01-09T02:55:06.863Z,0.00
2023-01-09T02:56:06.849Z,0.00
2023-01-09T02:57:06.808Z,0.00
2023-01-09T02:58:06.799Z,0.00
2023-01-09T02:59:06.783Z,0.00
2023-01-09T03:00:06.829Z,0.00
2023-01-09T03:01:06.808Z,0.00
2023-01-09T03:02:06.746Z,0.00
2023-01-09T03:03:06.763Z,0.00
2023-01-09T03:04:06.711Z,0.00
2023-01-09T03:05:06.716Z,0.00
2023-01-09T03:06:09.717Z,0.00
2023-01-09T03:07:09.691Z,0.00
2023-01-09T03:08:06.667Z,0.00
2023-01-09T03:09:06.651Z,0.00
2023-01-09T03:10:06.628Z,0.00
2023-01-09T03:11:06.675Z,0.00
2023-01-09T03:12:06.630Z,0.00
2023-01-09T03:13:06.611Z,0.00
2023-01-09T03:14:06.578Z,0.00
2023-01-09T03:15:06.561Z,0.00
2023-01-09T03:16:06.577Z,0.00
2023-01-09T03:17:06.539Z,0.00
2023-01-09T03:18:06.576Z,0.00
2023-01-09T03:19:06.511Z,0.00
2023-01-09T03:20:06.502Z,0.00
2023-01-09T03:21:06.491Z,0.00
2023-01-09T03:22:06.465Z,0.00
2023-01-09T03:23:06.464Z,0.00
2023-01-09T03:24:06.468Z,0.00
2023-01-09T03:25:06.430Z,0.00
2023-01-09T03:26:09.416Z,0.00
2023-01-09T03:27:09.422Z,0.00
2023-01-09T03:28:06.401Z,0.00
2023-01-09T03:29:06.412Z,0.00
2023-01-09T03:30:06.367Z,0.00
2023-01-09T03:31:06.365Z,0.00
2023-01-09T03:32:06.337Z,0.00
2023-01-09T03:33:06.336Z,0.00
2023-01-09T03:34:06.342Z,0.00
2023-01-09T03:35:06.325Z,0.00
2023-01-09T03:36:06.282Z,0.00
2023-01-09T03:37:06.275Z,0.00
2023-01-09T03:38:07.975Z,0.00
2023-01-09T03:39:06.245Z,0.00
2023-01-09T03:40:06.261Z,0.00
2023-01-09T03:41:06.266Z,0.00
2023-01-09T03:42:06.196Z,0.00
2023-01-09T03:43:06.188Z,0.00
2023-01-09T03:44:06.193Z,0.00
2023-01-09T03:45:06.163Z,0.00
2023-01-09T03:46:09.251Z,0.00
2023-01-09T03:47:09.147Z,0.00
2023-01-09T03:48:06.116Z,0.00
2023-01-09T03:49:06.116Z,0.00
2023-01-09T03:50:06.097Z,0.00
2023-01-09T03:51:06.107Z,0.00
2023-01-09T03:52:06.103Z,0.00
2023-01-09T03:53:06.058Z,0.00
2023-01-09T03:54:06.045Z,0.00
2023-01-09T03:55:06.028Z,0.00
2023-01-09T03:56:06.027Z,0.00
2023-01-09T03:57:06.027Z,0.00
2023-01-09T03:58:05.988Z,0.00
2023-01-09T03:59:05.980Z,0.00
2023-01-09T04:00:05.960Z,0.00
2023-01-09T04:01:06.079Z,0.00
2023-01-09T04:02:06.125Z,0.00
2023-01-09T04:03:05.923Z,0.00
2023-01-09T04:04:05.971Z,0.00
2023-01-09T04:05:05.901Z,0.00
2023-01-09T04:06:08.872Z,0.00
2023-01-09T04:07:08.927Z,0.00
2023-01-09T04:08:05.872Z,0.00
2023-01-09T04:09:05.846Z,0.00
2023-01-09T04:10:05.858Z,0.00
2023-01-09T04:11:05.818Z,0.00
2023-01-09T04:12:05.808Z,0.00
2023-01-09T04:13:05.826Z,0.00
2023-01-09T04:14:05.820Z,0.00
2023-01-09T04:15:05.775Z,0.00
2023-01-09T04:16:05.795Z,0.00
2023-01-09T04:17:05.751Z,0.00
2023-01-09T04:18:05.716Z,0.00
2023-01-09T04:19:05.745Z,0.00
2023-01-09T04:20:05.694Z,0.00
2023-01-09T04:21:05.696Z,0.00
2023-01-09T04:22:05.670Z,0.00
2023-01-09T04:23:05.666Z,0.00
2023-01-09T04:24:05.660Z,0.00
2023-01-09T04:25:05.673Z,0.00
2023-01-09T04:26:08.629Z,0.00
2023-01-09T04:27:08.618Z,0.00
2023-01-09T04:28:05.593Z,0.00
2023-01-09T04:29:05.579Z,0.00
2023-01-09T04:30:05.556Z,0.00
2023-01-09T04:31:05.588Z,0.00
2023-01-09T04:32:05.568Z,0.00
2023-01-09T04:33:05.522Z,0.00
2023-01-09T04:34:05.509Z,0.00
2023-01-09T04:35:05.498Z,0.00
2023-01-09T04:36:05.501Z,0.00
2023-01-09T04:37:05.490Z,0.00
2023-01-09T04:38:05.449Z,0.00
2023-01-09T04:39:05.443Z,0.00
2023-01-09T04:40:05.455Z,0.00
2023-01-09T04:41:05.444Z,0.00
2023-01-09T04:42:05.399Z,0.00
2023-01-09T04:43:05.434Z,0.00
2023-01-09T04:44:05.379Z,0.00
2023-01-09T04:45:05.395Z,0.00
2023-01-09T04:46:08.425Z,0.00
2023-01-09T04:47:08.341Z,0.00
2023-01-09T04:48:05.374Z,0.00
2023-01-09T04:49:05.322Z,0.00
2023-01-09T04:50:05.291Z,0.00
2023-01-09T04:51:05.280Z,0.00
2023-01-09T04:52:05.352Z,0.00
2023-01-09T04:53:05.252Z,0.00
2023-01-09T04:54:05.246Z,0.00
2023-01-09T04:55:05.231Z,0.00
2023-01-09T04:56:05.215Z,0.00
2023-01-09T04:57:05.225Z,0.00
2023-01-09T04:58:05.211Z,0.00
2023-01-09T04:59:05.187Z,0.00
2023-01-09T05:00:05.165Z,0.00
2023-01-09T05:01:05.291Z,0.00
2023-01-09T05:02:05.221Z,0.00
2023-01-09T05:03:05.152Z,0.00
2023-01-09T05:04:05.192Z,0.00
2023-01-09T05:05:05.111Z,0.00
2023-01-09T05:06:08.086Z,0.00
2023-01-09T05:07:08.090Z,0.00
2023-01-09T05:08:05.064Z,0.00
2023-01-09T05:09:05.035Z,0.00
2023-01-09T05:10:05.087Z,0.00
2023-01-09T05:11:05.020Z,0.00
2023-01-09T05:12:04.999Z,0.00
2023-01-09T05:13:04.998Z,0.00
2023-01-09T05:14:04.967Z,0.00
2023-01-09T05:15:04.988Z,0.00
2023-01-09T05:16:05.205Z,0.00
2023-01-09T05:17:04.952Z,0.00
2023-01-09T05:18:04.909Z,0.00
2023-01-09T05:19:04.939Z,0.00
2023-01-09T05:20:04.890Z,0.00
2023-01-09T05:21:04.900Z,0.00
2023-01-09T05:22:04.891Z,0.00
2023-01-09T05:23:04.881Z,0.00
2023-01-09T05:24:04.848Z,0.00
2023-01-09T05:25:04.836Z,0.00
2023-01-09T05:26:07.818Z,0.00
2023-01-09T05:27:07.846Z,0.00
2023-01-09T05:28:04.786Z,0.00
2023-01-09T05:29:04.802Z,0.00
2023-01-09T05:30:04.782Z,0.00
2023-01-09T05:31:04.758Z,0.00
2023-01-09T05:32:04.722Z,0.00
2023-01-09T05:33:04.748Z,0.00
2023-01-09T05:34:04.692Z,0.00
2023-01-09T05:35:04.715Z,0.00
2023-01-09T05:36:04.675Z,0.00
2023-01-09T05:37:04.686Z,0.00
2023-01-09T05:38:04.711Z,0.00
2023-01-09T05:39:04.643Z,0.00
2023-01-09T05:40:04.640Z,0.00
2023-01-09T05:41:04.606Z,0.00
2023-01-09T05:42:04.604Z,0.00
2023-01-09T05:43:04.580Z,0.00
2023-01-09T05:44:04.634Z,0.00
2023-01-09T05:45:04.559Z,0.00
2023-01-09T05:46:07.606Z,0.00
2023-01-09T05:47:07.557Z,0.00
2023-01-09T05:48:04.528Z,0.00
2023-01-09T05:49:04.544Z,0.00
2023-01-09T05:50:04.528Z,0.00
2023-01-09T05:51:04.490Z,0.00
2023-01-09T05:52:04.457Z,0.00
2023-01-09T05:53:04.464Z,0.00
2023-01-09T05:54:04.436Z,0.00
2023-01-09T05:55:04.453Z,0.00
2023-01-09T05:56:04.413Z,0.00
2023-01-09T05:57:04.437Z,0.00
2023-01-09T05:58:04.389Z,0.00
2023-01-09T05:59:04.368Z,0.00
2023-01-09T06:00:04.436Z,0.00
2023-01-09T06:01:04.428Z,0.00
2023-01-09T06:02:04.421Z,0.00
2023-01-09T06:03:04.427Z,0.00
2023-01-09T06:04:04.314Z,0.00
2023-01-09T06:05:04.295Z,0.00
2023-01-09T06:06:07.363Z,0.00
2023-01-09T06:07:07.279Z,0.00
2023-01-09T06:08:04.243Z,0.00
2023-01-09T06:09:04.233Z,0.00
2023-01-09T06:10:04.225Z,0.00
2023-01-09T06:11:04.237Z,0.00
2023-01-09T06:12:04.371Z,0.00
2023-01-09T06:13:04.200Z,0.00
2023-01-09T06:14:04.186Z,0.00
2023-01-09T06:15:04.165Z,0.00
2023-01-09T06:16:04.187Z,0.00
2023-01-09T06:17:04.133Z,0.00
2023-01-09T06:18:04.143Z,0.00
2023-01-09T06:19:04.103Z,0.00
2023-01-09T06:20:04.106Z,0.00
2023-01-09T06:21:04.075Z,0.00
2023-01-09T06:22:04.073Z,0.00
2023-01-09T06:23:04.083Z,0.00
2023-01-09T06:24:04.035Z,0.00
2023-01-09T06:25:04.029Z,0.00
2023-01-09T06:26:07.008Z,0.00
2023-01-09T06:27:07.004Z,0.00
2023-01-09T06:28:03.981Z,0.00
2023-01-09T06:29:04.014Z,0.00
2023-01-09T06:30:03.989Z,0.00
2023-01-09T06:31:04.018Z,0.00
2023-01-09T06:32:03.937Z,0.00
2023-01-09T06:33:03.924Z,0.00
2023-01-09T06:34:03.925Z,0.00
2023-01-09T06:35:03.914Z,0.00
2023-01-09T06:36:03.905Z,0.00
2023-01-09T06:37:03.856Z,0.00
2023-01-09T06:38:03.894Z,0.00
2023-01-09T06:39:03.828Z,0.00
2023-01-09T06:40:03.819Z,0.00
2023-01-09T06:41:03.800Z,0.00
2023-01-09T06:42:03.795Z,0.00
2023-01-09T06:43:03.790Z,0.00
2023-01-09T06:44:03.791Z,0.00
2023-01-09T06:45:03.778Z,0.00
2023-01-09T06:46:06.801Z,0.00
2023-01-09T06:47:06.743Z,0.00
2023-01-09T06:48:12.469Z,0.00
2023-01-09T06:49:03.727Z,0.00
2023-01-09T06:50:03.747Z,0.00
2023-01-09T06:51:03.719Z,0.00
2023-01-09T06:52:03.660Z,0.00
2023-01-09T06:53:03.659Z,0.00
2023-01-09T06:54:03.641Z,0.00
2023-01-09T06:55:03.648Z,0.00
2023-01-09T06:56:03.614Z,0.00
2023-01-09T06:57:03.581Z,0.00
2023-01-09T06:58:03.585Z,0.00
2023-01-09T06:59:03.614Z,0.00
2023-01-09T07:00:03.611Z,0.00
2023-01-09T07:01:03.641Z,0.00
2023-01-09T07:02:03.578Z,0.00
2023-01-09T07:03:03.521Z,0.00
2023-01-09T07:04:03.529Z,0.00
2023-01-09T07:05:03.522Z,0.00
2023-01-09T07:06:06.531Z,0.00
2023-01-09T07:07:06.484Z,0.00
2023-01-09T07:08:03.453Z,0.00
2023-01-09T07:09:03.427Z,0.00
2023-01-09T07:10:03.482Z,0.00
2023-01-09T07:11:03.396Z,0.00
2023-01-09T07:12:03.401Z,0.00
2023-01-09T07:13:03.385Z,0.00
2023-01-09T07:14:03.364Z,0.00
2023-01-09T07:15:03.344Z,0.00
2023-01-09T07:16:03.618Z,0.00
2023-01-09T07:17:03.333Z,0.00
2023-01-09T07:18:03.302Z,0.00
2023-01-09T07:19:03.287Z,0.00
2023-01-09T07:20:03.287Z,0.00
2023-01-09T07:21:03.256Z,0.00
2023-01-09T07:22:03.293Z,0.00
2023-01-09T07:23:03.227Z,0.00
2023-01-09T07:24:03.235Z,0.00
2023-01-09T07:25:03.215Z,0.00
2023-01-09T07:26:06.268Z,0.00
2023-01-09T07:27:06.205Z,0.00
2023-01-09T07:28:03.168Z,0.00
2023-01-09T07:29:03.167Z,0.00
2023-01-09T07:30:03.160Z,0.00
2023-01-09T07:31:03.158Z,0.00
2023-01-09T07:32:03.196Z,0.00
2023-01-09T07:33:04.101Z,0.00
2023-01-09T07:34:03.078Z,0.00
2023-01-09T07:35:03.098Z,0.00
2023-01-09T07:36:03.062Z,0.00
2023-01-09T07:37:03.055Z,0.00
2023-01-09T07:38:03.069Z,0.00
2023-01-09T07:39:03.006Z,0.00
2023-01-09T07:40:03.021Z,5.62
2023-01-09T07:41:02.989Z,5.62
2023-01-09T07:42:02.982Z,5.62
2023-01-09T07:43:03.027Z,5.62
2023-01-09T07:44:02.949Z,5.62
2023-01-09T07:45:02.931Z,5.62
2023-01-09T07:46:05.988Z,5.62
2023-01-09T07:47:05.921Z,5.62
2023-01-09T07:48:02.899Z,5.62
2023-01-09T07:49:02.915Z,5.62
2023-01-09T07:50:02.881Z,5.62
2023-01-09T07:51:02.860Z,5.62
2023-01-09T07:52:02.847Z,11.25
2023-01-09T07:53:02.846Z,11.25
2023-01-09T07:54:02.895Z,11.25
2023-01-09T07:55:02.815Z,11.25
2023-01-09T07:56:02.804Z,11.25
2023-01-09T07:57:02.780Z,11.25
2023-01-09T07:58:02.771Z,11.25
2023-01-09T07:59:02.764Z,11.25
2023-01-09T08:00:02.804Z,11.25
2023-01-09T08:01:02.817Z,11.25
2023-01-09T08:02:02.803Z,16.88
2023-01-09T08:03:02.758Z,16.88
2023-01-09T08:04:02.691Z,16.88
2023-01-09T08:05:02.681Z,16.88
2023-01-09T08:06:05.706Z,22.50
2023-01-09T08:07:05.688Z,22.50
2023-01-09T08:08:02.649Z,22.50
2023-01-09T08:09:02.624Z,22.50
2023-01-09T08:10:02.604Z,22.50
2023-01-09T08:11:02.621Z,22.50
2023-01-09T08:12:02.578Z,22.50
2023-01-09T08:13:02.568Z,22.50
2023-01-09T08:14:02.549Z,28.12
2023-01-09T08:15:02.578Z,28.12
2023-01-09T08:16:02.553Z,28.12
2023-01-09T08:17:02.520Z,28.12
2023-01-09T08:18:02.571Z,22.50
2023-01-09T08:19:02.480Z,22.50
2023-01-09T08:20:02.503Z,22.50
2023-01-09T08:21:02.469Z,28.12
2023-01-09T08:22:02.467Z,22.50
2023-01-09T08:23:02.432Z,16.88
2023-01-09T08:24:02.499Z,16.88
2023-01-09T08:25:02.423Z,11.25
2023-01-09T08:26:05.414Z,11.25
2023-01-09T08:27:05.401Z,11.25
2023-01-09T08:28:02.383Z,11.25
2023-01-09T08:29:02.354Z,11.25
2023-01-09T08:30:02.372Z,11.25
2023-01-09T08:31:02.336Z,11.25
2023-01-09T08:32:02.323Z,11.25
2023-01-09T08:33:02.311Z,11.25
2023-01-09T08:34:02.352Z,11.25
2023-01-09T08:35:02.340Z,11.25
2023-01-09T08:36:02.318Z,16.88
2023-01-09T08:37:02.253Z,16.88
2023-01-09T08:38:02.236Z,16.88
2023-01-09T08:39:02.225Z,16.88
2023-01-09T08:40:02.284Z,16.88
2023-01-09T08:41:02.202Z,16.88
2023-01-09T08:42:02.192Z,16.88
2023-01-09T08:43:02.188Z,16.88
2023-01-09T08:44:02.165Z,22.50
2023-01-09T08:45:02.136Z,22.50
2023-01-09T08:46:05.200Z,16.88
2023-01-09T08:47:05.127Z,16.88
2023-01-09T08:48:02.098Z,22.50
2023-01-09T08:49:02.092Z,22.50
2023-01-09T08:50:02.076Z,16.88
2023-01-09T08:51:02.075Z,16.88
2023-01-09T08:52:02.075Z,16.88
2023-01-09T08:53:02.037Z,16.88
2023-01-09T08:54:02.053Z,16.88
2023-01-09T08:55:02.059Z,16.88
2023-01-09T08:56:02.038Z,16.88
2023-01-09T08:57:01.968Z,16.88
2023-01-09T08:58:01.977Z,22.50
2023-01-09T08:59:01.945Z,22.50
2023-01-09T09:00:01.935Z,22.50
2023-01-09T09:01:01.920Z,22.50
2023-01-09T09:02:02.083Z,22.50
2023-01-09T09:03:01.982Z,22.50
2023-01-09T09:04:01.891Z,22.50
2023-01-09T09:05:01.859Z,22.50
2023-01-09T09:06:04.851Z,22.50
2023-01-09T09:07:04.893Z,28.12
2023-01-09T09:08:01.869Z,28.12
2023-01-09T09:09:01.810Z,22.50
2023-01-09T09:10:01.796Z,22.50
2023-01-09T09:11:01.788Z,22.50
2023-01-09T09:12:01.775Z,22.50
2023-01-09T09:13:01.753Z,22.50
2023-01-09T09:14:01.773Z,16.88
2023-01-09T09:15:01.750Z,22.50
2023-01-09T09:16:01.771Z,22.50
2023-01-09T09:17:01.701Z,22.50
2023-01-09T09:18:01.724Z,22.50
2023-01-09T09:19:01.684Z,22.50
2023-01-09T09:20:01.705Z,22.50
2023-01-09T09:21:01.642Z,28.12
2023-01-09T09:22:01.623Z,28.12
2023-01-09T09:23:01.623Z,28.12
2023-01-09T09:24:01.644Z,28.12
2023-01-09T09:25:01.588Z,28.12
2023-01-09T09:26:04.617Z,28.12
2023-01-09T09:27:04.585Z,33.75
2023-01-09T09:28:01.607Z,33.75
2023-01-09T09:29:01.542Z,33.75
2023-01-09T09:30:01.513Z,33.75
2023-01-09T09:31:01.547Z,33.75
2023-01-09T09:32:01.503Z,33.75
2023-01-09T09:33:01.490Z,33.75
2023-01-09T09:34:01.509Z,33.75
2023-01-09T09:35:01.455Z,33.75
2023-01-09T09:36:01.465Z,33.75
2023-01-09T09:37:01.467Z,33.75
2023-01-09T09:38:03.999Z,28.12
2023-01-09T09:39:01.408Z,28.12
2023-01-09T09:40:17.162Z,28.12
2023-01-09T09:41:02.399Z,28.12
2023-01-09T09:42:01.365Z,28.12
2023-01-09T09:43:01.356Z,22.50
2023-01-09T09:44:01.339Z,16.88
2023-01-09T09:45:01.326Z,16.88
2023-01-09T09:46:04.424Z,16.88
2023-01-09T09:47:04.340Z,16.88
2023-01-09T09:48:01.274Z,16.88
2023-01-09T09:49:01.280Z,16.88
2023-01-09T09:50:01.264Z,16.88
2023-01-09T09:51:01.269Z,22.50
2023-01-09T09:52:01.218Z,28.12
2023-01-09T09:53:01.210Z,33.75
2023-01-09T09:54:01.200Z,33.75
2023-01-09T09:55:01.191Z,33.75
2023-01-09T09:56:01.228Z,39.38
2023-01-09T09:57:01.159Z,45.00
2023-01-09T09:58:01.179Z,39.38
2023-01-09T09:59:01.183Z,39.38
2023-01-09T10:00:01.119Z,39.38
2023-01-09T10:01:01.111Z,45.00
2023-01-09T10:02:01.216Z,45.00
2023-01-09T10:03:01.186Z,45.00
2023-01-09T10:04:01.102Z,45.00
2023-01-09T10:05:01.061Z,45.00
2023-01-09T10:06:04.060Z,45.00
2023-01-09T10:07:04.047Z,45.00
2023-01-09T10:08:11.623Z,50.62
2023-01-09T10:09:02.053Z,45.00
2023-01-09T10:10:01.003Z,45.00
2023-01-09T10:11:00.982Z,45.00
2023-01-09T10:12:00.968Z,50.62
2023-01-09T10:13:00.954Z,50.62
2023-01-09T10:14:00.946Z,50.62
2023-01-09T10:15:00.992Z,56.25
2023-01-09T10:16:00.991Z,50.62
2023-01-09T10:17:00.893Z,56.25
2023-01-09T10:18:00.886Z,61.88
2023-01-09T10:19:00.875Z,61.88
2023-01-09T10:20:00.873Z,61.88
2023-01-09T10:21:00.889Z,56.25
2023-01-09T10:22:00.827Z,56.25
2023-01-09T10:23:00.805Z,56.25
2023-01-09T10:24:00.853Z,56.25
2023-01-09T10:25:00.809Z,61.88
2023-01-09T10:26:03.778Z,67.50
2023-01-09T10:27:03.777Z,61.88
2023-01-09T10:28:00.761Z,67.50
2023-01-09T10:29:00.796Z,67.50
2023-01-09T10:30:00.740Z,67.50
2023-01-09T10:31:01.485Z,67.50
2023-01-09T10:32:00.708Z,67.50
2023-01-09T10:33:00.679Z,67.50
2023-01-09T10:34:00.666Z,90.00
2023-01-09T10:35:00.694Z,84.38
2023-01-09T10:36:00.637Z,84.38
2023-01-09T10:37:00.738Z,78.75
2023-01-09T10:38:00.611Z,78.75
2023-01-09T10:39:00.601Z,73.12
2023-01-09T10:40:00.613Z,73.12
2023-01-09T10:41:01.912Z,73.12
2023-01-09T10:42:00.591Z,67.50
2023-01-09T10:43:00.559Z,61.88
2023-01-09T10:44:00.537Z,56.25
2023-01-09T10:45:00.523Z,56.25
2023-01-09T10:46:03.584Z,56.25
2023-01-09T10:47:03.510Z,56.25
2023-01-09T10:48:00.462Z,45.00
2023-01-09T10:49:00.480Z,39.38
2023-01-09T10:50:00.460Z,45.00
2023-01-09T10:51:00.446Z,50.62
2023-01-09T10:52:00.465Z,56.25
2023-01-09T10:53:00.418Z,56.25
2023-01-09T10:54:00.401Z,50.62
2023-01-09T10:55:00.404Z,50.62
2023-01-09T10:56:00.378Z,45.00
2023-01-09T10:57:00.367Z,39.38
2023-01-09T10:58:00.405Z,39.38
2023-01-09T10:59:00.334Z,39.38
2023-01-09T11:00:00.305Z,39.38
2023-01-09T11:01:00.324Z,39.38
2023-01-09T11:02:00.334Z,39.38
2023-01-09T11:03:00.339Z,39.38
2023-01-09T11:04:00.317Z,39.38
2023-01-09T11:05:00.248Z,39.38
2023-01-09T11:06:03.246Z,39.38
2023-01-09T11:07:03.271Z,39.38
2023-01-09T11:08:00.212Z,39.38
2023-01-09T11:09:00.216Z,39.38
2023-01-09T11:10:00.250Z,39.38
2023-01-09T11:11:00.179Z,39.38
2023-01-09T11:12:00.155Z,39.38
2023-01-09T11:13:00.154Z,39.38
2023-01-09T11:14:00.117Z,33.75
2023-01-09T11:15:00.141Z,28.12
2023-01-09T11:16:00.229Z,28.12
2023-01-09T11:17:00.105Z,28.12
2023-01-09T11:18:00.096Z,22.50
2023-01-09T11:19:00.069Z,22.50
2023-01-09T11:20:00.055Z,22.50
2023-01-09T11:21:00.038Z,22.50
2023-01-09T11:22:00.070Z,22.50
2023-01-09T11:23:00.014Z,22.50
2023-01-09T11:24:00.037Z,22.50
2023-01-09T11:24:59.975Z,22.50
2023-01-09T11:26:02.972Z,22.50
2023-01-09T11:27:03.029Z,22.50
2023-01-09T11:27:59.963Z,22.50
2023-01-09T11:28:59.931Z,22.50
2023-01-09T11:29:59.912Z,22.50
2023-01-09T11:30:59.901Z,22.50
2023-01-09T11:31:59.884Z,22.50
2023-01-09T11:32:59.934Z,28.12
2023-01-09T11:33:59.853Z,28.12
2023-01-09T11:34:59.839Z,28.12
2023-01-09T11:35:59.843Z,28.12
2023-01-09T11:36:59.903Z,33.75
2023-01-09T11:37:59.826Z,33.75
2023-01-09T11:38:59.834Z,33.75
2023-01-09T11:39:59.790Z,39.38
2023-01-09T11:40:59.765Z,39.38
2023-01-09T11:41:59.800Z,39.38
2023-01-09T11:42:59.746Z,39.38
2023-01-09T11:43:59.736Z,39.38
2023-01-09T11:44:59.735Z,39.38
2023-01-09T11:46:02.710Z,39.38
2023-01-09T11:47:02.768Z,39.38
2023-01-09T11:47:59.665Z,39.38
2023-01-09T11:48:59.702Z,39.38
2023-01-09T11:49:59.647Z,39.38
2023-01-09T11:50:59.638Z,39.38
2023-01-09T11:51:59.616Z,39.38
2023-01-09T11:52:59.607Z,39.38
2023-01-09T11:53:59.657Z,39.38
2023-01-09T11:54:59.588Z,39.38
2023-01-09T11:55:59.571Z,39.38
2023-01-09T11:56:59.567Z,39.38
2023-01-09T11:57:59.530Z,39.38
2023-01-09T11:58:59.552Z,39.38
2023-01-09T11:59:59.564Z,39.38
2023-01-09T12:00:59.491Z,39.38
2023-01-09T12:01:59.584Z,39.38
2023-01-09T12:02:59.474Z,39.38
2023-01-09T12:03:59.448Z,39.38
2023-01-09T12:04:59.447Z,39.38
2023-01-09T12:06:02.497Z,39.38
2023-01-09T12:07:02.430Z,39.38
2023-01-09T12:07:59.398Z,33.75
2023-01-09T12:08:59.394Z,33.75
2023-01-09T12:09:59.393Z,33.75
2023-01-09T12:10:59.361Z,33.75
2023-01-09T12:11:59.381Z,33.75
2023-01-09T12:12:59.376Z,28.12
2023-01-09T12:13:59.310Z,28.12
2023-01-09T12:14:59.323Z,28.12
2023-01-09T12:15:59.319Z,22.50
2023-01-09T12:16:59.285Z,22.50
2023-01-09T12:17:59.316Z,22.50
2023-01-09T12:18:59.255Z,22.50
2023-01-09T12:19:59.233Z,22.50
2023-01-09T12:20:59.228Z,28.12
2023-01-09T12:21:59.212Z,22.50
2023-01-09T12:22:59.195Z,28.12
2023-01-09T12:23:59.226Z,22.50
2023-01-09T12:24:59.165Z,22.50
2023-01-09T12:26:02.172Z,28.12
2023-01-09T12:27:02.164Z,28.12
2023-01-09T12:27:59.135Z,28.12
2023-01-09T12:28:59.117Z,33.75
2023-01-09T12:29:59.176Z,33.75
2023-01-09T12:30:59.108Z,39.38
2023-01-09T12:31:59.127Z,39.38
2023-01-09T12:32:59.072Z,33.75
2023-01-09T12:33:59.061Z,33.75
2023-01-09T12:34:59.039Z,28.12
2023-01-09T12:35:59.048Z,22.50
2023-01-09T12:36:59.079Z,22.50
2023-01-09T12:37:59.038Z,22.50
2023-01-09T12:38:59.001Z,22.50
2023-01-09T12:39:58.987Z,22.50
2023-01-09T12:40:58.962Z,22.50
2023-01-09T12:41:58.973Z,22.50
2023-01-09T12:42:58.962Z,16.88
2023-01-09T12:43:58.916Z,16.88
2023-01-09T12:44:58.953Z,16.88
2023-01-09T12:46:01.897Z,16.88
2023-01-09T12:47:01.891Z,16.88
2023-01-09T12:48:48.245Z,16.88
2023-01-09T12:49:48.219Z,16.88
2023-01-09T12:50:48.241Z,16.88
2023-01-09T12:51:48.186Z,16.88
2023-01-09T12:52:48.175Z,16.88
2023-01-09T12:53:48.154Z,16.88
2023-01-09T12:54:48.135Z,16.88
2023-01-09T12:55:48.209Z,16.88
2023-01-09T12:56:48.184Z,16.88
2023-01-09T12:57:48.095Z,22.50
2023-01-09T12:58:48.076Z,22.50
2023-01-09T12:59:48.085Z,22.50
2023-01-09T13:00:48.078Z,22.50
2023-01-09T13:01:48.098Z,22.50
2023-01-09T13:02:48.072Z,22.50
2023-01-09T13:03:48.035Z,22.50
2023-01-09T13:04:47.995Z,22.50
2023-01-09T13:05:47.999Z,28.12
2023-01-09T13:06:48.766Z,28.12
2023-01-09T13:07:51.018Z,28.12